Time;durP1;ratioP1;P1;durP2;ratioP2;P2;SDS_P1;SDS_P2;PMS_P1;PMS_P2;Temp;Humidity;BMP_temperature;BMP_pressure;BME280_temperature;BME280_humidity;BME280_pressure;Samples;Min_cycle;Max_cycle;Signal;HPM_P1;HPM_P2
2023/09/21 00:00:37;;;;;;;6.18;1.50;;;20.90;35.50;;;;;;5054192;28;20048;-72
2023/09/21 00:03:06;;;;;;;3.80;1.20;;;21.00;35.30;;;;;;5036746;28;20037;-72
2023/09/21 00:05:35;;;;;;;3.70;1.40;;;21.10;35.70;;;;;;5054324;28;20032;-71
2023/09/21 00:08:03;;;;;;;4.72;1.33;;;21.20;35.30;;;;;;5036313;28;20025;-72
2023/09/21 00:10:32;;;;;;;3.05;1.38;;;21.10;35.40;;;;;;5036076;28;20446;-72
2023/09/21 00:13:00;;;;;;;6.07;1.35;;;21.20;35.70;;;;;;5036734;28;20033;-72
2023/09/21 00:15:30;;;;;;;5.15;1.30;;;21.20;36.30;;;;;;5019904;28;20033;-72
2023/09/21 00:17:58;;;;;;;5.38;1.30;;;21.20;36.30;;;;;;5053290;28;20033;-72
2023/09/21 00:20:28;;;;;;;3.15;1.20;;;21.30;35.60;;;;;;5019929;28;20387;-72
2023/09/21 00:23:04;;;;;;;6.97;1.30;;;21.30;36.30;;;;;;5003912;28;20407;-72
2023/09/21 00:25:32;;;;;;;10.32;1.77;;;21.30;35.60;;;;;;5037256;28;20021;-71
2023/09/21 00:27:59;;;;;;;5.43;1.20;;;21.30;34.90;;;;;;5053896;28;20033;-72
2023/09/21 00:30:26;;;;;;;5.93;1.33;;;21.30;34.90;;;;;;5035961;28;20044;-73
2023/09/21 00:32:54;;;;;;;6.30;1.20;;;21.40;34.90;;;;;;5053588;28;20495;-72
2023/09/21 00:35:23;;;;;;;9.98;1.80;;;21.40;34.80;;;;;;5019662;28;20088;-72
2023/09/21 00:37:50;;;;;;;6.80;1.52;;;21.40;34.60;;;;;;5036222;28;20044;-72
2023/09/21 00:40:18;;;;;;;7.25;1.13;;;21.40;34.50;;;;;;5035605;28;20048;-72
2023/09/21 00:42:45;;;;;;;8.35;1.92;;;21.40;35.00;;;;;;5053215;28;20022;-72
2023/09/21 00:45:14;;;;;;;6.00;1.48;;;21.40;33.80;;;;;;5035563;28;20029;-72
2023/09/21 00:47:52;;;;;;;7.30;1.60;;;21.40;34.10;;;;;;5019488;28;20028;-73
2023/09/21 00:50:21;;;;;;;9.50;1.80;;;21.40;34.40;;;;;;5019883;28;20064;-72
2023/09/21 00:52:53;;;;;;;7.80;1.90;;;21.50;34.20;;;;;;5053406;28;20043;-72
2023/09/21 00:55:25;;;;;;;12.82;2.13;;;21.50;35.70;;;;;;5035887;28;20314;-72
2023/09/21 00:57:55;;;;;;;14.88;1.85;;;21.50;39.50;;;;;;5036030;28;20391;-71
2023/09/21 01:00:25;;;;;;;15.02;1.70;;;21.30;39.40;;;;;;5019546;28;20353;-72
2023/09/21 01:02:53;;;;;;;;;;;21.10;41.20;;;;;;5036146;28;20068;-71
2023/09/21 01:05:21;;;;;;;21.67;2.17;;;21.00;43.30;;;;;;5035261;28;19936;-71
2023/09/21 01:07:50;;;;;;;26.70;2.67;;;20.90;50.30;;;;;;5035312;28;20033;-72
2023/09/21 01:10:22;;;;;;;9.02;2.15;;;20.60;54.20;;;;;;5052438;28;20037;-72
2023/09/21 01:12:51;;;;;;;12.27;2.28;;;20.40;54.70;;;;;;5020038;28;20033;-71
2023/09/21 01:15:20;;;;;;;15.90;2.25;;;20.10;53.00;;;;;;5052510;28;20025;-72
2023/09/21 01:17:48;;;;;;;48.38;4.95;;;20.10;54.30;;;;;;5035436;28;20048;-72
2023/09/21 01:20:30;;;;;;;14.98;2.08;;;20.20;55.30;;;;;;5034833;28;20064;-74
2023/09/21 01:23:19;;;;;;;9.45;2.10;;;20.30;52.70;;;;;;5022500;28;20368;-75
2023/09/21 01:25:50;;;;;;;8.07;1.85;;;20.30;54.00;;;;;;5034845;28;20451;-73
2023/09/21 01:28:22;;;;;;;12.88;2.00;;;20.20;54.20;;;;;;5052827;28;20039;-71
2023/09/21 01:30:51;;;;;;;17.13;2.35;;;20.10;52.30;;;;;;5018710;28;20388;-72
2023/09/21 01:33:18;;;;;;;7.88;1.42;;;20.10;50.80;;;;;;5052289;28;20049;-73
2023/09/21 01:35:46;;;;;;;11.57;1.95;;;20.10;50.90;;;;;;5018343;28;20095;-71
2023/09/21 01:38:13;;;;;;;13.02;2.00;;;19.90;52.80;;;;;;5035050;28;20059;-71
2023/09/21 01:40:41;;;;;;;9.05;1.88;;;19.80;55.20;;;;;;5018107;28;20421;-71
2023/09/21 01:43:10;;;;;;;14.45;2.00;;;19.90;57.20;;;;;;5052202;28;20159;-71
2023/09/21 01:45:40;;;;;;;12.68;2.20;;;19.90;59.50;;;;;;5018178;28;20036;-70
2023/09/21 01:48:10;;;;;;;5.15;1.60;;;19.80;58.80;;;;;;5034749;28;20044;-72
2023/09/21 01:50:48;;;;;;;15.80;2.08;;;19.70;59.10;;;;;;5019132;28;20045;-71
2023/09/21 01:53:20;;;;;;;13.65;2.05;;;19.80;60.70;;;;;;5034364;28;20036;-72
2023/09/21 01:55:49;;;;;;;13.65;2.50;;;19.70;58.70;;;;;;5034792;28;20029;-73
2023/09/21 01:58:22;;;;;;;8.32;1.85;;;19.80;60.50;;;;;;5001792;28;20088;-73
2023/09/21 02:00:49;;;;;;;16.20;2.25;;;19.90;60.50;;;;;;5002302;28;20069;-74
2023/09/21 02:03:24;;;;;;;7.45;1.88;;;19.90;60.20;;;;;;5018279;28;20021;-73
2023/09/21 02:05:52;;;;;;;14.02;2.28;;;19.80;59.20;;;;;;5034823;28;20040;-74
2023/09/21 02:08:19;;;;;;;25.30;2.30;;;19.90;61.60;;;;;;5018025;28;20037;-73
2023/09/21 02:10:52;;;;;;;6.88;1.55;;;20.00;63.30;;;;;;5051989;28;20048;-73
2023/09/21 02:13:20;;;;;;;16.10;2.03;;;20.20;61.50;;;;;;5052041;28;20543;-73
2023/09/21 02:15:51;;;;;;;12.00;1.90;;;20.00;59.80;;;;;;5034465;28;20128;-74
2023/09/21 02:18:19;;;;;;;10.70;1.83;;;19.90;59.40;;;;;;5034641;28;20495;-73
2023/09/21 02:20:49;;;;;;;6.85;1.83;;;19.90;58.50;;;;;;5051905;28;20033;-75
2023/09/21 02:23:17;;;;;;;14.85;2.10;;;19.80;58.60;;;;;;5018570;28;20069;-73
2023/09/21 02:25:45;;;;;;;10.77;2.15;;;19.80;58.40;;;;;;5034366;28;20033;-73
2023/09/21 02:28:12;;;;;;;13.80;2.40;;;19.80;58.60;;;;;;5034139;28;20025;-73
2023/09/21 02:30:47;;;;;;;14.82;2.78;;;19.90;58.40;;;;;;5033807;28;20156;-72
2023/09/21 02:33:18;;;;;;;15.82;2.22;;;20.00;60.70;;;;;;5051889;28;20040;-73
2023/09/21 02:35:46;;;;;;;15.10;2.60;;;20.00;57.70;;;;;;5051902;28;20028;-73
2023/09/21 02:38:14;;;;;;;15.25;2.35;;;19.90;58.40;;;;;;5034537;28;20033;-73
2023/09/21 02:40:45;;;;;;;15.38;2.78;;;19.80;60.10;;;;;;5034790;28;20045;-72
2023/09/21 02:43:13;;;;;;;13.55;1.80;;;19.80;59.00;;;;;;5038277;28;20036;-72
2023/09/21 02:45:40;;;;;;;30.83;2.65;;;19.70;58.30;;;;;;5055757;28;20040;-74
2023/09/21 02:48:08;;;;;;;10.30;1.88;;;19.80;58.20;;;;;;5055637;28;20047;-74
2023/09/21 02:50:35;;;;;;;19.67;2.50;;;19.90;57.50;;;;;;5055437;28;20037;-74
2023/09/21 02:53:11;;;;;;;7.75;1.98;;;19.90;61.10;;;;;;5037534;28;20044;-72
2023/09/21 02:55:39;;;;;;;10.13;2.13;;;19.80;62.50;;;;;;5055485;28;20115;-72
2023/09/21 02:58:10;;;;;;;15.40;2.05;;;19.80;62.50;;;;;;5037864;28;20033;-73
2023/09/21 03:00:49;;;;;;;20.33;2.42;;;19.70;62.90;;;;;;5055507;28;20033;-73
2023/09/21 03:03:19;;;;;;;9.70;2.00;;;19.60;61.90;;;;;;5055297;28;20041;-73
2023/09/21 03:05:47;;;;;;;8.45;1.95;;;19.40;61.80;;;;;;5038080;28;20029;-72
2023/09/21 03:08:15;;;;;;;12.30;2.33;;;19.50;62.20;;;;;;5037211;28;20037;-73
2023/09/21 03:10:50;;;;;;;8.02;2.00;;;19.50;61.90;;;;;;5055072;28;20037;-74
2023/09/21 03:13:18;;;;;;;14.88;2.50;;;19.50;62.50;;;;;;5055081;28;20033;-73
2023/09/21 03:15:52;;;;;;;9.07;2.00;;;19.40;61.30;;;;;;5021168;28;20340;-73
2023/09/21 03:18:19;;;;;;;10.30;2.03;;;19.40;60.90;;;;;;5021847;28;20106;-72
2023/09/21 03:20:48;;;;;;;16.55;3.33;;;19.50;59.80;;;;;;5004218;28;20488;-73
2023/09/21 03:23:15;;;;;;;9.27;1.80;;;19.70;61.90;;;;;;5004747;28;20055;-73
2023/09/21 03:25:51;;;;;;;12.80;2.70;;;19.70;62.20;;;;;;5020709;28;20032;-73
2023/09/21 03:28:19;;;;;;;8.75;2.13;;;19.70;61.50;;;;;;5037113;28;20083;-73
2023/09/21 03:30:50;;;;;;;12.27;2.38;;;19.60;61.70;;;;;;5020846;28;20091;-73
2023/09/21 03:33:21;;;;;;;9.95;2.17;;;19.60;62.30;;;;;;5055071;28;20491;-73
2023/09/21 03:35:48;;;;;;;11.98;2.30;;;19.50;61.50;;;;;;5036921;28;20037;-73
2023/09/21 03:38:19;;;;;;;13.80;1.90;;;19.50;61.70;;;;;;5037045;28;20345;-73
2023/09/21 03:40:45;;;;;;;;;;;19.60;62.10;;;;;;5037721;28;20116;-73
2023/09/21 03:43:13;;;;;;;12.25;2.42;;;19.40;61.10;;;;;;5054724;28;19911;-73
2023/09/21 03:45:43;;;;;;;9.95;2.30;;;19.30;61.30;;;;;;5036808;28;20033;-72
2023/09/21 03:48:12;;;;;;;13.30;2.67;;;19.30;62.60;;;;;;5054373;28;20067;-73
2023/09/21 03:50:40;;;;;;;10.65;2.25;;;19.30;62.30;;;;;;5036231;28;20477;-73
2023/09/21 03:53:10;;;;;;;17.65;2.75;;;19.30;62.40;;;;;;5019273;28;20025;-73
2023/09/21 03:55:38;;;;;;;12.85;1.98;;;19.30;62.60;;;;;;5054395;28;20513;-73
2023/09/21 03:58:07;;;;;;;15.77;2.88;;;19.50;63.10;;;;;;5036831;28;20084;-74
2023/09/21 04:03:12;;;;;;;12.27;2.50;;;19.20;61.80;;;;;;5054465;28;20041;-73
2023/09/21 04:05:42;;;;;;;10.75;2.10;;;19.20;62.20;;;;;;5022566;28;20037;-73
2023/09/21 04:08:09;;;;;;;11.50;2.55;;;19.20;62.10;;;;;;5020871;28;20399;-72
2023/09/21 04:10:36;;;;;;;9.45;2.00;;;19.20;62.00;;;;;;5036241;28;20083;-73
2023/09/21 04:13:05;;;;;;;11.15;2.20;;;19.20;61.20;;;;;;5054197;28;20037;-72
2023/09/21 04:15:32;;;;;;;8.68;2.33;;;19.20;61.30;;;;;;5036216;28;20508;-72
2023/09/21 04:17:59;;;;;;;10.60;2.40;;;19.30;61.20;;;;;;5019808;28;20059;-73
2023/09/21 04:20:33;;;;;;;10.57;2.25;;;19.30;61.60;;;;;;5052396;28;20084;-72
2023/09/21 04:23:00;;;;;;;10.02;2.00;;;19.20;61.20;;;;;;5036791;28;20045;-73
2023/09/21 04:25:28;;;;;;;9.07;2.30;;;19.10;61.60;;;;;;5053602;28;20029;-72
2023/09/21 04:27:55;;;;;;;12.35;2.50;;;19.10;62.00;;;;;;5053841;28;20036;-72
2023/09/21 04:30:22;;;;;;;12.38;2.28;;;19.20;61.40;;;;;;5053419;28;20056;-72
2023/09/21 04:32:49;;;;;;;13.80;2.50;;;19.10;61.60;;;;;;5019745;28;20072;-72
2023/09/21 04:35:18;;;;;;;16.27;3.03;;;19.20;62.20;;;;;;5053499;28;20075;-72
2023/09/21 04:37:46;;;;;;;10.57;3.10;;;19.20;61.90;;;;;;5053414;28;20029;-73
2023/09/21 04:40:13;;;;;;;8.10;2.05;;;19.20;61.30;;;;;;5035269;28;20040;-71
2023/09/21 04:42:42;;;;;;;13.65;2.30;;;19.20;60.90;;;;;;5053409;28;20550;-73
2023/09/21 04:45:13;;;;;;;10.00;2.00;;;19.10;61.00;;;;;;5019459;28;20037;-73
2023/09/21 04:47:49;;;;;;;14.95;2.80;;;19.10;61.10;;;;;;5053427;28;20040;-72
2023/09/21 04:50:20;;;;;;;9.30;1.90;;;19.10;61.10;;;;;;5035967;28;20032;-72
2023/09/21 04:52:50;;;;;;;11.05;2.10;;;19.10;61.40;;;;;;5035962;28;20120;-72
2023/09/21 04:55:18;;;;;;;11.13;1.83;;;19.00;59.00;;;;;;5035721;28;20108;-72
2023/09/21 04:57:46;;;;;;;16.27;2.20;;;19.00;60.70;;;;;;5035744;28;20113;-72
2023/09/21 05:00:14;;;;;;;10.77;2.63;;;18.90;60.00;;;;;;5019248;28;20029;-72
2023/09/21 05:02:42;;;;;;;8.93;1.80;;;18.90;60.80;;;;;;5035248;28;20095;-73
2023/09/21 05:05:10;;;;;;;10.43;2.10;;;19.00;60.40;;;;;;5035024;28;20040;-73
2023/09/21 05:07:38;;;;;;;9.57;1.98;;;19.00;60.50;;;;;;5051940;28;20033;-72
2023/09/21 05:10:07;;;;;;;11.00;2.20;;;18.90;59.70;;;;;;5053058;28;20037;-72
2023/09/21 05:12:34;;;;;;;8.10;1.85;;;18.80;60.00;;;;;;5053149;28;20087;-73
2023/09/21 05:15:06;;;;;;;11.60;2.53;;;18.70;61.00;;;;;;5035544;28;20103;-75
2023/09/21 05:17:34;;;;;;;6.53;1.95;;;18.70;61.70;;;;;;5035737;28;20428;-73
2023/09/21 05:20:01;;;;;;;10.45;1.75;;;18.70;60.90;;;;;;5052975;28;20358;-74
2023/09/21 05:22:30;;;;;;;13.45;2.08;;;18.50;59.90;;;;;;5018596;28;20041;-73
2023/09/21 05:24:57;;;;;;;10.85;2.03;;;18.50;60.80;;;;;;5052572;28;20438;-73
2023/09/21 05:27:24;;;;;;;5.60;1.63;;;18.50;60.50;;;;;;5052711;28;20364;-71
2023/09/21 05:29:52;;;;;;;11.45;1.73;;;18.50;62.10;;;;;;5018239;28;20036;-75
2023/09/21 05:32:19;;;;;;;13.60;2.03;;;18.40;62.00;;;;;;5052198;28;20491;-74
2023/09/21 05:34:47;;;;;;;10.25;1.88;;;18.30;62.90;;;;;;5035021;28;20033;-73
2023/09/21 05:37:14;;;;;;;8.07;2.10;;;18.30;62.50;;;;;;5052473;28;20112;-73
2023/09/21 05:39:42;;;;;;;7.75;1.98;;;18.40;62.30;;;;;;5034953;28;20040;-73
2023/09/21 05:42:09;;;;;;;21.15;2.25;;;18.40;62.00;;;;;;5052365;28;20060;-72
2023/09/21 05:44:38;;;;;;;9.13;1.70;;;18.40;61.00;;;;;;5035067;28;20028;-73
2023/09/21 05:47:05;;;;;;;16.40;2.20;;;18.30;61.50;;;;;;5035068;28;20039;-73
2023/09/21 05:49:36;;;;;;;16.42;2.38;;;18.50;61.00;;;;;;5034607;28;20379;-73
2023/09/21 05:52:08;;;;;;;;;;;18.60;61.10;;;;;;5052691;28;20044;-73
2023/09/21 05:54:40;;;;;;;11.07;1.90;;;18.60;60.00;;;;;;5051938;28;19955;-75
2023/09/21 05:57:07;;;;;;;5.70;1.88;;;18.50;59.90;;;;;;5052195;28;20029;-73
2023/09/21 05:59:36;;;;;;;11.75;1.92;;;18.40;60.10;;;;;;5034408;28;20249;-73
2023/09/21 06:02:05;;;;;;;11.90;2.83;;;18.30;61.40;;;;;;5034399;28;20118;-74
2023/09/21 06:04:34;;;;;;;10.13;1.80;;;18.30;61.10;;;;;;5051595;28;20092;-73
2023/09/21 06:07:02;;;;;;;14.18;2.30;;;18.30;61.30;;;;;;5034500;28;20171;-73
2023/09/21 06:09:30;;;;;;;14.10;2.10;;;18.30;61.50;;;;;;5051916;28;20502;-73
2023/09/21 06:11:57;;;;;;;11.02;2.35;;;18.30;61.90;;;;;;5051718;28;20041;-74
2023/09/21 06:14:24;;;;;;;13.55;2.30;;;18.30;60.20;;;;;;5052363;28;20063;-73
2023/09/21 06:16:54;;;;;;;13.35;1.85;;;18.20;60.10;;;;;;5051290;28;20040;-73
2023/09/21 06:19:23;;;;;;;;;;;18.20;60.60;;;;;;5035973;28;20122;-73
2023/09/21 06:21:56;;;;;;;7.97;1.90;;;18.10;61.70;;;;;;5055611;28;19909;-74
2023/09/21 06:24:27;;;;;;;23.45;2.45;;;17.90;59.40;;;;;;5048742;28;20061;-73
2023/09/21 06:26:54;;;;;;;6.60;1.70;;;17.80;61.00;;;;;;5053577;28;20040;-73
2023/09/21 06:29:22;;;;;;;9.13;1.75;;;17.70;60.70;;;;;;5071234;28;20033;-74
2023/09/21 06:31:54;;;;;;;11.63;2.78;;;17.80;61.20;;;;;;5069803;28;20051;-74
2023/09/21 06:34:25;;;;;;;12.65;1.80;;;17.90;60.80;;;;;;5035430;28;20041;-74
2023/09/21 06:36:52;;;;;;;13.52;2.15;;;17.90;60.10;;;;;;5039939;28;20120;-72
2023/09/21 06:39:21;;;;;;;6.80;1.60;;;17.80;58.90;;;;;;5053855;28;20036;-74
2023/09/21 06:41:48;;;;;;;13.23;2.05;;;17.70;59.40;;;;;;5021356;28;20047;-74
2023/09/21 06:44:18;;;;;;;19.90;2.30;;;17.60;59.80;;;;;;5071475;28;20108;-73
2023/09/21 06:46:45;;;;;;;21.47;2.50;;;17.60;60.00;;;;;;5071640;28;20087;-76
2023/09/21 06:49:13;;;;;;;14.48;2.28;;;17.60;60.40;;;;;;5053838;28;20262;-76
2023/09/21 06:51:40;;;;;;;13.52;1.77;;;17.70;60.90;;;;;;5050121;28;20467;-74
2023/09/21 06:54:07;;;;;;;16.45;2.13;;;17.70;60.30;;;;;;5068950;28;20037;-74
2023/09/21 06:56:34;;;;;;;8.95;1.60;;;17.70;58.40;;;;;;5050697;28;20036;-74
2023/09/21 06:59:05;;;;;;;12.68;1.80;;;17.70;57.70;;;;;;5068510;28;20039;-75
2023/09/21 07:01:34;;;;;;;11.35;1.95;;;17.60;56.90;;;;;;5068763;28;20029;-76
2023/09/21 07:04:03;;;;;;;11.63;2.10;;;17.50;58.80;;;;;;5050774;28;20024;-76
2023/09/21 07:06:30;;;;;;;7.53;1.80;;;17.50;59.00;;;;;;5034744;28;20099;-72
2023/09/21 07:08:59;;;;;;;9.30;2.00;;;17.50;58.40;;;;;;5068644;28;20422;-74
2023/09/21 07:11:26;;;;;;;7.00;1.88;;;17.40;58.20;;;;;;5068407;28;20044;-75
2023/09/21 07:13:54;;;;;;;8.07;1.50;;;17.30;57.90;;;;;;5050723;28;20025;-74
2023/09/21 07:16:22;;;;;;;12.38;2.10;;;17.30;59.00;;;;;;5068759;28;20115;-74
2023/09/21 07:18:49;;;;;;;9.13;2.08;;;17.30;59.20;;;;;;5068372;28;20429;-74
2023/09/21 07:21:16;;;;;;;8.52;1.95;;;17.20;59.20;;;;;;5063990;28;20096;-73
2023/09/21 07:23:43;;;;;;;10.02;1.80;;;17.30;59.00;;;;;;5041047;28;20640;-75
2023/09/21 07:26:11;;;;;;;15.20;2.15;;;17.30;59.60;;;;;;5048409;28;20044;-77
2023/09/21 07:28:38;;;;;;;10.40;2.00;;;17.30;58.30;;;;;;5071610;28;20044;-76
2023/09/21 07:31:06;;;;;;;13.50;2.13;;;17.20;58.90;;;;;;5053654;28;20159;-77
2023/09/21 07:33:33;;;;;;;13.23;1.90;;;17.30;59.10;;;;;;5052897;28;20486;-75
2023/09/21 07:36:02;;;;;;;9.85;2.33;;;17.30;59.40;;;;;;5020747;28;20490;-74
2023/09/21 07:38:30;;;;;;;14.88;1.98;;;17.30;60.10;;;;;;5071703;28;20447;-74
2023/09/21 07:40:57;;;;;;;7.57;1.95;;;17.30;59.50;;;;;;5052812;28;20078;-73
2023/09/21 07:43:28;;;;;;;11.52;1.95;;;17.30;59.60;;;;;;5049176;28;20036;-74
2023/09/21 07:46:02;;;;;;;9.65;2.03;;;17.30;59.30;;;;;;5036546;28;20106;-74
2023/09/21 07:48:39;;;;;;;10.15;1.88;;;17.30;59.40;;;;;;5053703;28;20036;-74
2023/09/21 07:51:13;;;;;;;12.95;2.10;;;17.20;57.70;;;;;;5037380;28;20036;-74
2023/09/21 07:53:40;;;;;;;7.43;1.77;;;17.30;57.70;;;;;;5047871;28;20036;-76
2023/09/21 07:56:12;;;;;;;12.18;1.92;;;17.30;58.10;;;;;;5053018;28;20039;-75
2023/09/21 07:58:39;;;;;;;10.45;1.98;;;17.30;56.50;;;;;;5054059;28;20079;-76
2023/09/21 08:01:07;;;;;;;13.13;2.03;;;17.20;56.60;;;;;;5051200;28;20032;-75
2023/09/21 08:03:34;;;;;;;7.70;1.80;;;17.30;57.30;;;;;;5069968;28;20044;-74
2023/09/21 08:06:01;;;;;;;7.95;1.80;;;17.20;57.40;;;;;;5050883;28;20055;-75
2023/09/21 08:08:28;;;;;;;8.40;1.50;;;17.30;56.50;;;;;;5052557;28;20429;-74
2023/09/21 08:10:56;;;;;;;7.82;1.90;;;17.30;56.90;;;;;;5070004;28;20494;-73
2023/09/21 08:13:25;;;;;;;11.98;2.00;;;17.20;56.20;;;;;;5070225;28;20107;-74
2023/09/21 08:15:56;;;;;;;6.47;1.75;;;17.30;56.90;;;;;;5036667;28;20048;-73
2023/09/21 08:18:24;;;;;;;8.52;1.75;;;17.30;57.40;;;;;;5053868;28;20036;-74
2023/09/21 08:20:52;;;;;;;9.68;2.00;;;17.30;56.40;;;;;;5069202;28;20158;-73
2023/09/21 08:23:19;;;;;;;15.75;2.25;;;17.20;57.10;;;;;;5052031;28;20041;-73
2023/09/21 08:25:47;;;;;;;7.47;2.00;;;17.20;56.90;;;;;;5016177;28;20132;-74
2023/09/21 08:28:14;;;;;;;8.25;2.10;;;17.20;56.90;;;;;;5051929;28;20029;-73
2023/09/21 08:30:42;;;;;;;11.48;2.10;;;17.20;57.00;;;;;;5035347;28;20049;-80
2023/09/21 08:33:10;;;;;;;17.65;2.47;;;17.20;58.00;;;;;;5068129;28;20103;-75
2023/09/21 08:35:37;;;;;;;9.70;1.88;;;17.20;58.50;;;;;;5070584;28;20032;-76
2023/09/21 08:38:04;;;;;;;8.73;2.03;;;17.20;57.50;;;;;;5052414;28;20029;-77
2023/09/21 08:40:33;;;;;;;9.18;1.85;;;17.20;58.50;;;;;;5035406;28;20079;-77
2023/09/21 08:43:00;;;;;;;7.95;2.47;;;17.20;58.70;;;;;;5052731;28;20074;-77
2023/09/21 08:45:27;;;;;;;10.40;2.00;;;17.20;58.60;;;;;;5036171;28;20032;-78
2023/09/21 08:47:55;;;;;;;11.38;1.95;;;17.20;58.50;;;;;;5023788;28;20088;-77
2023/09/21 08:50:23;;;;;;;8.55;1.90;;;17.20;58.40;;;;;;5050375;28;20036;-77
2023/09/21 08:52:53;;;;;;;9.10;1.98;;;17.20;57.90;;;;;;5052693;28;20422;-79
2023/09/21 08:55:25;;;;;;;8.52;1.80;;;17.20;58.00;;;;;;5036605;28;20044;-80
2023/09/21 08:57:53;;;;;;;12.60;2.10;;;17.20;58.70;;;;;;5068576;28;20040;-77
2023/09/21 09:00:21;;;;;;;16.27;2.50;;;17.10;58.80;;;;;;5052711;28;20032;-76
2023/09/21 09:02:49;;;;;;;8.32;1.98;;;17.20;58.80;;;;;;5050009;28;20044;-76
2023/09/21 09:05:18;;;;;;;7.10;2.20;;;17.10;59.40;;;;;;5019205;28;20044;-75
2023/09/21 09:07:45;;;;;;;7.90;2.00;;;17.20;60.00;;;;;;5023479;28;20466;-75
2023/09/21 09:10:13;;;;;;;11.60;2.20;;;17.10;60.60;;;;;;5030641;28;20337;-76
2023/09/21 09:12:41;;;;;;;10.40;2.17;;;17.10;61.40;;;;;;5019523;28;20391;-76
2023/09/21 09:15:09;;;;;;;9.98;2.03;;;17.10;61.80;;;;;;5046938;28;20040;-75
2023/09/21 09:17:37;;;;;;;9.38;2.75;;;17.10;61.00;;;;;;5035692;28;20032;-73
2023/09/21 09:20:05;;;;;;;7.05;1.75;;;17.00;60.80;;;;;;5052029;28;20054;-74
2023/09/21 09:22:37;;;;;;;9.82;1.83;;;17.00;60.40;;;;;;5036069;28;21157;-74
2023/09/21 09:25:10;;;;;;;6.78;1.60;;;17.10;61.20;;;;;;5030557;28;20049;-78
2023/09/21 09:27:41;;;;;;;8.02;1.80;;;17.00;60.80;;;;;;5031884;28;20124;-81
2023/09/21 09:30:11;;;;;;;9.45;1.90;;;17.00;61.40;;;;;;5039902;28;20040;-75
2023/09/21 09:32:41;;;;;;;14.32;2.42;;;17.00;61.30;;;;;;5069724;28;20044;-76
2023/09/21 09:35:13;;;;;;;10.07;2.17;;;17.10;62.00;;;;;;5035577;28;20037;-79
2023/09/21 09:37:49;;;;;;;9.35;2.15;;;17.20;62.40;;;;;;5052226;28;20028;-78
2023/09/21 09:40:23;;;;;;;11.60;2.33;;;17.20;62.50;;;;;;5035013;28;20043;-79
2023/09/21 09:42:53;;;;;;;15.90;2.60;;;17.20;62.50;;;;;;5052958;28;20471;-77
2023/09/21 09:45:28;;;;;;;8.73;2.47;;;17.20;61.80;;;;;;5042240;28;20494;-76
2023/09/21 09:47:56;;;;;;;10.93;2.08;;;17.20;61.40;;;;;;5031168;28;20040;-80
2023/09/21 09:50:24;;;;;;;9.25;3.10;;;17.20;61.70;;;;;;4998000;28;20049;-75
2023/09/21 09:53:03;;;;;;;10.90;2.13;;;17.20;61.70;;;;;;5047136;28;20522;-81
2023/09/21 09:55:33;;;;;;;11.00;2.17;;;17.20;61.80;;;;;;5025645;28;20071;-77
2023/09/21 09:58:00;;;;;;;;;;;17.10;60.50;;;;;;5088326;22;20455;-69
2023/09/21 10:00:28;;;;;;;8.18;1.80;;;17.10;61.80;;;;;;5088655;28;19945;-70
2023/09/21 10:02:58;;;;;;;13.32;2.28;;;17.00;62.40;;;;;;5089656;28;20040;-70
2023/09/21 10:05:28;;;;;;;;;;;17.00;62.00;;;;;;5088097;28;20028;-71
2023/09/21 10:07:59;;;;;;;12.18;2.53;;;17.00;62.30;;;;;;5088429;28;19908;-69
2023/09/21 10:10:36;;;;;;;15.20;3.33;;;17.10;62.20;;;;;;5068301;28;20028;-70
2023/09/21 10:13:05;;;;;;;15.18;2.72;;;17.10;62.70;;;;;;5055678;28;20036;-71
2023/09/21 10:15:33;;;;;;;9.27;2.17;;;17.10;62.10;;;;;;5069909;28;20040;-70
2023/09/21 10:18:01;;;;;;;12.43;2.58;;;17.10;62.40;;;;;;5071081;28;20036;-73
2023/09/21 10:20:29;;;;;;;13.18;2.10;;;17.00;61.00;;;;;;5089267;28;20074;-70
2023/09/21 10:22:58;;;;;;;7.25;1.73;;;17.10;61.10;;;;;;5071980;28;20705;-71
2023/09/21 10:25:39;;;;;;;6.55;1.85;;;17.10;61.10;;;;;;5070564;28;20115;-68
2023/09/21 10:28:29;;;;;;;14.55;2.50;;;17.10;60.90;;;;;;5088348;28;20048;-70
2023/09/21 10:30:56;;;;;;;16.17;2.67;;;17.00;60.70;;;;;;5089475;28;20036;-70
2023/09/21 10:33:25;;;;;;;11.45;2.40;;;17.00;61.40;;;;;;5071415;28;20421;-68
2023/09/21 10:35:53;;;;;;;11.88;2.65;;;17.00;61.80;;;;;;5082157;28;20021;-69
2023/09/21 10:38:20;;;;;;;12.32;2.45;;;17.00;61.50;;;;;;5089424;28;20043;-70
2023/09/21 10:40:47;;;;;;;11.32;1.95;;;17.00;60.90;;;;;;5089141;28;20139;-69
2023/09/21 10:43:41;;;;;;;8.68;2.10;;;17.00;60.50;;;;;;5083959;28;20502;-72
2023/09/21 10:46:21;;;;;;;12.60;2.20;;;17.00;60.30;;;;;;5081405;28;20084;-69
2023/09/21 10:48:51;;;;;;;9.68;2.15;;;17.00;60.40;;;;;;5088944;28;20032;-71
2023/09/21 10:51:19;;;;;;;15.95;2.45;;;17.00;60.70;;;;;;5050967;28;20044;-71
2023/09/21 10:53:48;;;;;;;8.88;1.90;;;17.00;61.40;;;;;;5032857;28;20063;-71
2023/09/21 10:56:16;;;;;;;10.10;2.45;;;17.00;61.10;;;;;;5067362;28;20047;-72
2023/09/21 10:58:43;;;;;;;6.60;1.77;;;17.00;60.80;;;;;;5070917;28;20526;-73
2023/09/21 11:01:10;;;;;;;9.48;2.10;;;17.00;60.50;;;;;;5073023;28;20039;-70
2023/09/21 11:03:38;;;;;;;12.02;2.30;;;17.00;60.70;;;;;;5092692;28;20043;-70
2023/09/21 11:06:05;;;;;;;15.77;1.92;;;17.00;62.50;;;;;;5073952;28;20032;-71
2023/09/21 11:08:33;;;;;;;6.70;1.92;;;16.70;69.00;;;;;;5056466;28;20063;-70
2023/09/21 11:11:02;;;;;;;8.05;1.90;;;16.20;71.10;;;;;;5069942;28;20054;-69
2023/09/21 11:13:30;;;;;;;13.05;2.17;;;15.80;73.40;;;;;;5092285;28;20047;-71
2023/09/21 11:15:57;;;;;;;10.60;2.35;;;15.70;75.10;;;;;;5072341;28;20386;-70
2023/09/21 11:18:24;;;;;;;11.07;2.25;;;15.70;74.00;;;;;;5054368;28;20036;-69
2023/09/21 11:20:52;;;;;;;8.70;1.75;;;15.70;72.00;;;;;;5072775;28;20109;-70
2023/09/21 11:23:20;;;;;;;10.13;1.70;;;15.70;72.20;;;;;;5072747;28;20094;-71
2023/09/21 11:25:50;;;;;;;10.20;1.88;;;15.70;73.60;;;;;;5092683;28;20537;-69
2023/09/21 13:21:28;;;;;;;9.80;1.90;;;16.00;73.20;;;;;;5070499;28;20186;-69
2023/09/21 13:23:56;;;;;;;15.43;2.35;;;15.50;77.60;;;;;;5070964;28;20119;-69
2023/09/21 13:26:23;;;;;;;12.85;2.03;;;15.30;79.20;;;;;;5072272;28;20033;-69
2023/09/21 13:28:50;;;;;;;9.93;1.92;;;15.20;81.50;;;;;;5054744;28;20059;-69
2023/09/21 13:31:22;;;;;;;10.02;2.13;;;15.00;82.40;;;;;;5071689;28;20033;-69
2023/09/21 13:33:50;;;;;;;16.33;2.17;;;14.90;83.20;;;;;;5072061;28;20032;-69
2023/09/21 13:36:17;;;;;;;10.80;2.38;;;14.70;84.40;;;;;;5071526;28;20063;-69
2023/09/21 13:38:48;;;;;;;16.13;2.50;;;14.60;85.00;;;;;;5071724;28;20063;-69
2023/09/21 13:41:16;;;;;;;17.02;2.72;;;14.60;86.50;;;;;;5070497;28;20032;-70
2023/09/21 13:43:43;;;;;;;9.75;2.13;;;14.40;87.70;;;;;;5072210;28;20601;-69
2023/09/21 13:46:10;;;;;;;7.43;2.03;;;14.20;87.70;;;;;;5072161;28;20032;-70
2023/09/21 13:48:38;;;;;;;16.02;1.90;;;14.00;88.00;;;;;;5054319;28;20506;-69
2023/09/21 13:51:06;;;;;;;8.90;1.70;;;14.00;88.40;;;;;;5053196;28;20047;-70
2023/09/21 13:53:34;;;;;;;10.25;1.80;;;14.00;88.60;;;;;;5054288;28;20120;-69
2023/09/21 13:56:02;;;;;;;12.68;1.92;;;14.00;89.30;;;;;;5072161;28;20064;-70
2023/09/21 13:58:30;;;;;;;14.15;1.88;;;13.90;88.70;;;;;;5071506;28;20029;-70
2023/09/21 14:00:57;;;;;;;11.63;2.10;;;13.90;89.30;;;;;;5070825;28;20032;-70
2023/09/21 14:03:25;;;;;;;9.93;1.80;;;13.90;88.00;;;;;;5071382;28;20106;-71
2023/09/21 14:05:52;;;;;;;10.23;1.58;;;13.90;89.10;;;;;;5054269;28;20324;-70
2023/09/21 14:08:22;;;;;;;9.57;1.95;;;13.80;89.20;;;;;;5054249;28;20083;-70
2023/09/21 14:10:50;;;;;;;10.93;1.90;;;13.70;87.60;;;;;;5070677;28;20049;-70
2023/09/21 14:13:17;;;;;;;12.60;2.00;;;13.70;88.70;;;;;;5071640;28;20036;-72
2023/09/21 14:15:45;;;;;;;10.48;1.63;;;13.70;90.40;;;;;;5053768;28;20029;-71
2023/09/21 14:18:13;;;;;;;11.48;2.15;;;13.70;90.40;;;;;;5053734;28;20045;-71
2023/09/21 14:20:40;;;;;;;10.43;2.08;;;13.60;90.50;;;;;;5070376;28;20038;-71
2023/09/21 14:23:07;;;;;;;13.02;1.90;;;13.60;89.40;;;;;;5071124;28;20068;-72
2023/09/21 14:25:34;;;;;;;15.68;2.83;;;13.60;90.60;;;;;;5071515;28;20040;-71
2023/09/21 14:28:02;;;;;;;8.63;1.90;;;13.70;91.10;;;;;;5071699;28;20047;-72
2023/09/21 14:30:29;;;;;;;9.63;1.70;;;13.70;91.30;;;;;;5071983;28;20025;-71
2023/09/21 14:32:56;;;;;;;9.65;1.63;;;13.70;90.70;;;;;;5070351;28;20048;-71
2023/09/21 14:35:24;;;;;;;12.15;1.88;;;13.70;91.10;;;;;;5071602;28;20040;-71
2023/09/21 14:37:51;;;;;;;12.15;2.10;;;13.70;91.60;;;;;;5074789;28;20059;-72
2023/09/21 14:40:18;;;;;;;6.45;1.80;;;13.70;91.00;;;;;;5074608;28;20036;-71
2023/09/21 14:42:45;;;;;;;8.40;2.15;;;13.70;91.10;;;;;;5075209;28;20475;-72
2023/09/21 14:45:13;;;;;;;7.95;1.80;;;13.70;91.60;;;;;;5076009;28;20033;-72
2023/09/21 14:47:40;;;;;;;7.60;1.55;;;13.60;91.60;;;;;;5075679;28;20032;-71